Terminal Aerodrome Forecast
Issued by NWS Birmingham, AL

Home | Current Version | Previous Version | Text Only | Print | Product List | Glossary On
Versions: 1 2 3 4 5 6 7 8 9 10 11 12 13 14 15 16
000
FTUS44 KBMX 021944 AAA
TAFBHM
TAF AMD
KBHM 021944Z 0220/0318 36005KT 4SM SHRA BKN050 BKN250
     FM022015 36005KT P6SM VCSH BKN050 BKN250
     FM030200 VRB03KT P6SM BKN200=

USA.gov is the U.S. government's official web portal to all federal, state and local government web resources and services.